Time;durP1;ratioP1;P1;durP2;ratioP2;P2;SDS_P1;SDS_P2;PMS_P1;PMS_P2;Temp;Humidity;BMP_temperature;BMP_pressure;BME280_temperature;BME280_humidity;BME280_pressure;Samples;Min_cycle;Max_cycle;Signal;HPM_P1;HPM_P2
2022/11/01 00:00:10;;;;;;;24.73;21.02;;;8.60;99.90;;;;;;5074757;28;20210;-74
2022/11/01 00:02:35;;;;;;;26.33;21.85;;;8.50;99.90;;;;;;5070606;28;20186;-74
2022/11/01 00:05:02;;;;;;;27.98;23.10;;;8.50;99.90;;;;;;5070174;28;20183;-74
2022/11/01 00:07:28;;;;;;;27.40;22.45;;;8.40;99.90;;;;;;5077346;28;20633;-74
2022/11/01 00:09:53;;;;;;;25.25;22.25;;;8.40;99.90;;;;;;5074355;28;20206;-73
2022/11/01 00:12:19;;;;;;;26.90;23.55;;;8.40;99.90;;;;;;5065311;28;20248;-75
2022/11/01 00:14:45;;;;;;;29.02;23.95;;;8.40;99.90;;;;;;5066210;28;20180;-73
2022/11/01 00:17:10;;;;;;;31.27;25.25;;;8.30;99.90;;;;;;5067049;28;20211;-74
2022/11/01 00:19:36;;;;;;;24.55;21.65;;;8.20;99.90;;;;;;5066701;28;20207;-74
2022/11/01 00:22:02;;;;;;;26.77;23.08;;;8.20;99.90;;;;;;5071219;28;20175;-75
2022/11/01 00:24:30;;;;;;;25.42;22.65;;;8.20;99.90;;;;;;5066937;28;20172;-74
2022/11/01 00:26:56;;;;;;;29.88;23.83;;;8.20;99.90;;;;;;5071957;28;20184;-73
2022/11/01 00:29:22;;;;;;;28.75;21.88;;;8.20;99.90;;;;;;5066564;28;20268;-73
2022/11/01 00:31:48;;;;;;;24.20;20.95;;;8.10;99.90;;;;;;5069572;28;20199;-73
2022/11/01 00:34:15;;;;;;;22.55;20.15;;;8.10;99.90;;;;;;5073404;28;20726;-73
2022/11/01 00:36:41;;;;;;;19.48;17.40;;;8.10;99.90;;;;;;5069253;28;20286;-73
2022/11/01 00:39:07;;;;;;;19.92;17.83;;;8.10;99.90;;;;;;5067642;28;20282;-73
2022/11/01 00:41:33;;;;;;;17.98;15.77;;;8.20;99.90;;;;;;5068331;28;20186;-73
2022/11/01 00:43:58;;;;;;;19.88;17.83;;;8.20;99.90;;;;;;5073272;28;20575;-73
2022/11/01 00:46:24;;;;;;;19.20;15.77;;;8.20;99.90;;;;;;5072277;28;20215;-73
2022/11/01 00:48:50;;;;;;;16.42;14.52;;;8.20;99.90;;;;;;5070035;28;20250;-73
2022/11/01 00:51:15;;;;;;;18.88;16.70;;;8.20;99.90;;;;;;5066860;28;20184;-73
2022/11/01 00:53:41;;;;;;;17.83;15.90;;;8.20;99.90;;;;;;5074649;28;20171;-75
2022/11/01 00:56:07;;;;;;;16.35;14.75;;;8.10;99.90;;;;;;5062943;28;20222;-75
2022/11/01 00:58:33;;;;;;;18.52;15.45;;;8.10;99.90;;;;;;5069229;28;20174;-75
2022/11/01 01:00:59;;;;;;;15.77;14.18;;;8.10;99.90;;;;;;5064735;28;20693;-75
2022/11/01 01:03:24;;;;;;;15.95;14.23;;;8.10;99.90;;;;;;5069224;28;20646;-74
2022/11/01 01:05:52;;;;;;;20.42;16.98;;;8.10;99.90;;;;;;5069367;28;20197;-75
2022/11/01 01:08:17;;;;;;;19.23;16.80;;;8.00;99.90;;;;;;5068405;28;20176;-73
2022/11/01 01:10:43;;;;;;;17.23;15.27;;;8.00;99.90;;;;;;5069960;28;20209;-73
2022/11/01 01:13:09;;;;;;;19.50;17.40;;;8.10;99.90;;;;;;5069372;28;20202;-74
2022/11/01 01:15:37;;;;;;;29.83;22.75;;;8.20;99.90;;;;;;5069390;28;20178;-73
2022/11/01 01:18:03;;;;;;;26.33;19.25;;;8.20;99.90;;;;;;5070089;28;20179;-73
2022/11/01 01:20:29;;;;;;;25.65;20.65;;;8.30;99.90;;;;;;5067601;28;20684;-73
2022/11/01 01:22:55;;;;;;;23.85;19.25;;;8.40;99.90;;;;;;5069133;28;20179;-73
2022/11/01 01:25:21;;;;;;;38.13;24.23;;;8.40;99.90;;;;;;5068033;28;20633;-73
2022/11/01 01:27:47;;;;;;;25.38;20.88;;;8.50;99.90;;;;;;5070457;28;20226;-73
2022/11/01 01:30:13;;;;;;;25.63;20.17;;;8.60;99.90;;;;;;5066936;28;20263;-72
2022/11/01 01:32:40;;;;;;;37.70;21.08;;;8.70;99.90;;;;;;5072945;28;20179;-74
2022/11/01 01:35:06;;;;;;;24.42;19.63;;;8.70;99.90;;;;;;5072566;28;20178;-74
2022/11/01 01:37:31;;;;;;;38.60;20.75;;;8.80;99.90;;;;;;5070830;28;20210;-74
2022/11/01 01:39:57;;;;;;;21.20;18.92;;;8.70;99.90;;;;;;5072856;28;20260;-74
2022/11/01 01:42:35;;;;;;;21.00;18.77;;;8.80;99.90;;;;;;5065628;28;20634;-74
2022/11/01 01:45:04;;;;;;;20.20;17.73;;;8.70;99.90;;;;;;5067284;28;20206;-74
2022/11/01 01:47:35;;;;;;;25.52;19.10;;;8.80;99.90;;;;;;5072697;28;20197;-75
2022/11/01 01:50:22;;;;;;;29.08;18.65;;;8.80;99.90;;;;;;5065156;28;20180;-74
2022/11/01 01:52:53;;;;;;;30.00;18.88;;;8.80;99.90;;;;;;5062106;28;20535;-74
2022/11/01 01:55:31;;;;;;;33.67;18.42;;;8.70;99.90;;;;;;5076242;28;20183;-73
2022/11/01 01:57:57;;;;;;;17.92;16.13;;;8.70;99.90;;;;;;5069160;28;20174;-74
2022/11/01 02:00:24;;;;;;;30.60;18.08;;;8.80;99.90;;;;;;5067770;28;20568;-73
2022/11/01 02:02:50;;;;;;;18.70;16.35;;;8.90;99.90;;;;;;5069063;28;20520;-75
2022/11/01 02:05:19;;;;;;;28.98;17.40;;;9.00;99.90;;;;;;5067823;28;20189;-74
2022/11/01 02:07:45;;;;;;;24.08;16.58;;;9.00;99.90;;;;;;5066330;28;20200;-74
2022/11/01 02:10:13;;;;;;;24.25;17.00;;;9.00;99.90;;;;;;5065111;28;20189;-74
2022/11/01 02:12:45;;;;;;;29.95;16.30;;;9.00;99.90;;;;;;5073070;28;20200;-74
2022/11/01 02:15:12;;;;;;;25.10;15.73;;;9.00;99.90;;;;;;5067099;28;20179;-74
2022/11/01 02:18:20;;;;;;;36.08;15.85;;;9.00;99.90;;;;;;5065905;28;20571;-74
2022/11/01 02:21:05;;;;;;;31.60;14.32;;;8.90;99.90;;;;;;5064565;28;20215;-73
2022/11/01 02:24:00;;;;;;;17.42;13.35;;;8.90;99.90;;;;;;5074908;28;20743;-72
2022/11/01 02:26:40;;;;;;;20.33;13.85;;;8.90;99.90;;;;;;5068282;28;20203;-73
2022/11/01 02:29:24;;;;;;;13.65;12.25;;;9.00;99.90;;;;;;5063746;28;20190;-72
2022/11/01 02:32:17;;;;;;;17.20;12.43;;;9.00;99.90;;;;;;5067018;28;20203;-73
2022/11/01 02:34:55;;;;;;;17.23;12.32;;;9.00;99.90;;;;;;5057702;28;20186;-72
2022/11/01 02:37:48;;;;;;;13.45;12.05;;;9.00;99.90;;;;;;5064022;28;20210;-74
2022/11/01 02:40:20;;;;;;;30.58;13.07;;;9.00;99.90;;;;;;5066293;28;20562;-75
2022/11/01 02:42:51;;;;;;;23.65;11.38;;;9.10;99.90;;;;;;5079117;28;20750;-74
2022/11/01 02:45:49;;;;;;;24.42;11.75;;;9.20;99.90;;;;;;5064401;28;20202;-74
2022/11/01 02:48:20;;;;;;;19.13;11.05;;;9.20;99.90;;;;;;5059235;28;20195;-74
2022/11/01 02:50:51;;;;;;;30.08;11.25;;;9.30;99.90;;;;;;5063503;28;20232;-74
2022/11/01 02:53:17;;;;;;;10.48;9.55;;;9.30;99.90;;;;;;5068416;28;20720;-72
2022/11/01 02:55:42;;;;;;;26.95;9.93;;;9.30;99.90;;;;;;5079117;28;20335;-73
2022/11/01 02:58:21;;;;;;;22.45;11.45;;;9.30;99.90;;;;;;5063973;28;20179;-72
2022/11/01 03:00:46;;;;;;;14.20;10.25;;;9.10;99.90;;;;;;5069505;28;20198;-73
2022/11/01 03:03:15;;;;;;;19.42;11.88;;;9.00;99.90;;;;;;5061690;28;20302;-73
2022/11/01 03:05:59;;;;;;;10.52;9.50;;;9.00;99.90;;;;;;5066334;28;20248;-72
2022/11/01 03:08:27;;;;;;;11.25;10.20;;;9.00;99.90;;;;;;5075415;28;20191;-72
2022/11/01 03:10:55;;;;;;;11.57;10.38;;;9.00;99.90;;;;;;5076621;28;20262;-72
2022/11/01 03:13:31;;;;;;;13.05;11.07;;;9.10;99.90;;;;;;5072339;28;20183;-73
2022/11/01 03:16:07;;;;;;;18.98;11.27;;;9.10;99.90;;;;;;5074896;28;20297;-73
2022/11/01 03:18:35;;;;;;;13.27;11.88;;;9.00;99.90;;;;;;5073796;28;20281;-72
2022/11/01 03:21:14;;;;;;;18.65;11.45;;;9.10;99.90;;;;;;5076679;28;20199;-73
2022/11/01 03:23:55;;;;;;;21.02;11.40;;;9.00;99.90;;;;;;5072584;28;20175;-73
2022/11/01 03:26:26;;;;;;;23.85;11.95;;;9.00;99.90;;;;;;5071768;28;20203;-73
2022/11/01 03:29:01;;;;;;;15.27;10.45;;;9.10;99.90;;;;;;5064622;28;20255;-73
2022/11/01 03:31:32;;;;;;;11.68;10.57;;;9.00;99.90;;;;;;5069643;28;20171;-73
2022/11/01 03:34:11;;;;;;;10.57;9.68;;;9.00;99.90;;;;;;5070124;28;20180;-73
2022/11/01 03:36:46;;;;;;;16.58;11.60;;;9.10;99.90;;;;;;5068509;28;20214;-73
2022/11/01 03:39:18;;;;;;;12.07;10.65;;;9.00;99.90;;;;;;5060800;28;20195;-73
2022/11/01 03:41:48;;;;;;;16.85;11.10;;;9.00;99.90;;;;;;5064256;28;20538;-74
2022/11/01 03:44:15;;;;;;;25.45;11.20;;;9.10;99.90;;;;;;5069259;28;20247;-74
2022/11/01 03:46:41;;;;;;;20.20;11.32;;;9.10;99.90;;;;;;5066173;28;20344;-74
2022/11/01 03:49:07;;;;;;;15.45;10.65;;;9.00;99.90;;;;;;5060640;28;20301;-73
2022/11/01 03:51:33;;;;;;;14.57;10.80;;;9.10;99.90;;;;;;5060759;28;20272;-74
2022/11/01 03:53:58;;;;;;;11.80;10.68;;;9.00;99.90;;;;;;5062291;28;20183;-73
2022/11/01 03:56:24;;;;;;;13.10;10.23;;;9.10;99.90;;;;;;5064413;28;20203;-74
2022/11/01 03:58:49;;;;;;;11.25;10.15;;;9.00;99.90;;;;;;5059816;28;20180;-74
2022/11/01 04:01:16;;;;;;;11.27;10.27;;;9.10;99.90;;;;;;5061414;28;20254;-74
2022/11/01 04:03:42;;;;;;;17.38;10.90;;;9.10;99.90;;;;;;5066144;28;20229;-74
2022/11/01 04:06:08;;;;;;;20.45;10.65;;;9.10;99.90;;;;;;5054629;28;20192;-75
2022/11/01 04:08:35;;;;;;;17.98;10.35;;;9.10;99.90;;;;;;5067600;28;20197;-74
2022/11/01 04:11:02;;;;;;;32.33;11.40;;;9.10;99.90;;;;;;5065870;28;20179;-73
2022/11/01 04:13:28;;;;;;;38.58;12.75;;;9.00;99.90;;;;;;5073745;28;20258;-73
2022/11/01 04:21:24;;;;;;;25.00;13.07;;;9.00;99.90;;;;;;5068549;28;20190;-73
2022/11/01 04:23:50;;;;;;;35.25;13.02;;;8.90;99.90;;;;;;5073231;28;20253;-73
2022/11/01 04:26:18;;;;;;;37.15;12.63;;;8.90;99.90;;;;;;5070664;28;20685;-74
2022/11/01 04:28:55;;;;;;;23.15;13.20;;;8.90;99.90;;;;;;5063961;28;22099;-74
2022/11/01 04:31:22;;;;;;;32.08;13.52;;;8.90;99.90;;;;;;5063808;28;20186;-74
2022/11/01 04:33:48;;;;;;;14.65;11.45;;;8.90;99.90;;;;;;5070060;28;20174;-73
2022/11/01 04:36:13;;;;;;;12.52;11.32;;;8.90;99.90;;;;;;5063342;28;20199;-73
2022/11/01 04:38:39;;;;;;;20.95;12.55;;;8.90;99.90;;;;;;5067081;28;20171;-73
2022/11/01 04:41:05;;;;;;;21.42;12.02;;;8.90;99.90;;;;;;5068848;28;20217;-74
2022/11/01 04:43:30;;;;;;;19.10;12.27;;;8.90;99.90;;;;;;5059810;28;20183;-73
2022/11/01 04:45:56;;;;;;;22.52;13.02;;;8.90;99.90;;;;;;5064836;28;20767;-73
2022/11/01 04:48:22;;;;;;;28.38;12.52;;;8.80;99.90;;;;;;5059836;28;20176;-73
2022/11/01 04:50:48;;;;;;;14.23;10.95;;;8.80;99.90;;;;;;5062326;28;20191;-73
2022/11/01 04:53:13;;;;;;;21.50;11.57;;;8.90;99.90;;;;;;5058835;28;21295;-74
2022/11/01 04:55:39;;;;;;;33.63;13.77;;;9.10;99.90;;;;;;5066621;28;20207;-74
2022/11/01 04:58:05;;;;;;;20.67;13.40;;;9.00;99.90;;;;;;5067490;28;20171;-73
2022/11/01 05:00:32;;;;;;;27.70;13.70;;;8.90;99.90;;;;;;5068784;28;20207;-74
2022/11/01 05:03:05;;;;;;;37.50;13.25;;;8.90;99.90;;;;;;5066997;28;20187;-73
2022/11/01 05:05:32;;;;;;;13.30;11.90;;;8.90;99.90;;;;;;5063253;28;20306;-73
2022/11/01 05:08:01;;;;;;;18.83;11.50;;;8.90;99.90;;;;;;5065218;28;20230;-73
2022/11/01 05:10:27;;;;;;;15.35;10.63;;;8.90;99.90;;;;;;5061457;28;20559;-73
2022/11/01 05:12:52;;;;;;;40.58;12.25;;;9.10;99.90;;;;;;5062777;28;20168;-74
2022/11/01 05:15:18;;;;;;;34.80;14.00;;;9.10;99.90;;;;;;5062328;28;21265;-73
2022/11/01 05:17:43;;;;;;;16.67;11.32;;;9.00;99.90;;;;;;5060649;28;20180;-74
2022/11/01 05:20:09;;;;;;;19.55;12.07;;;9.10;99.90;;;;;;5060654;28;20651;-73
2022/11/01 05:22:35;;;;;;;13.57;11.18;;;9.00;99.90;;;;;;5067849;28;20641;-73
2022/11/01 05:25:01;;;;;;;22.25;11.88;;;9.00;99.90;;;;;;5071481;28;20182;-74
2022/11/01 05:27:26;;;;;;;21.42;12.70;;;9.00;99.90;;;;;;5071246;28;20208;-73
2022/11/01 05:29:52;;;;;;;18.92;11.68;;;9.00;99.90;;;;;;5067453;28;20183;-74
2022/11/01 05:32:17;;;;;;;13.63;11.32;;;9.00;99.90;;;;;;5061136;28;20650;-73
2022/11/01 05:34:43;;;;;;;18.10;11.80;;;9.00;99.90;;;;;;5067868;28;20183;-74
2022/11/01 05:37:09;;;;;;;28.02;12.57;;;9.00;99.90;;;;;;5068988;28;20227;-74
2022/11/01 05:39:35;;;;;;;17.27;11.95;;;9.10;99.90;;;;;;5069287;28;20572;-73
2022/11/01 05:42:00;;;;;;;22.13;12.45;;;9.10;99.90;;;;;;5067035;28;20167;-74
2022/11/01 05:44:26;;;;;;;15.75;11.10;;;9.10;99.90;;;;;;5061180;28;20249;-74
2022/11/01 05:46:54;;;;;;;22.40;12.57;;;9.20;99.90;;;;;;5055748;28;22278;-77
2022/11/01 05:49:21;;;;;;;20.30;11.65;;;9.20;99.90;;;;;;5066990;28;20218;-77
2022/11/01 05:51:47;;;;;;;22.05;11.77;;;9.20;99.90;;;;;;5053943;28;20187;-76
2022/11/01 05:54:12;;;;;;;15.55;11.65;;;9.20;99.90;;;;;;5065333;28;20599;-76
2022/11/01 05:56:38;;;;;;;29.10;13.40;;;9.30;99.90;;;;;;5064152;28;20221;-78
2022/11/01 05:59:04;;;;;;;24.65;11.90;;;9.30;99.90;;;;;;5059371;28;20180;-78
2022/11/01 06:01:29;;;;;;;23.58;13.13;;;9.20;99.90;;;;;;5067955;28;20183;-78
2022/11/01 06:04:00;;;;;;;16.15;10.75;;;9.20;99.90;;;;;;5069267;28;20910;-77
2022/11/01 06:06:28;;;;;;;19.27;10.90;;;9.30;99.90;;;;;;5057553;28;20674;-76
2022/11/01 06:08:56;;;;;;;16.40;11.80;;;9.30;99.90;;;;;;5064428;28;20258;-75
2022/11/01 06:11:22;;;;;;;25.08;11.40;;;9.30;99.90;;;;;;5065216;28;20219;-76
2022/11/01 06:13:52;;;;;;;17.80;11.90;;;9.40;99.90;;;;;;5066684;28;20555;-77
2022/11/01 06:16:17;;;;;;;16.98;11.65;;;9.30;99.90;;;;;;5066157;28;20199;-73
2022/11/01 06:18:43;;;;;;;16.45;12.65;;;9.30;99.90;;;;;;5061112;28;20184;-72
2022/11/01 06:21:09;;;;;;;10.40;9.45;;;9.30;99.90;;;;;;5058442;28;20212;-74
2022/11/01 06:23:35;;;;;;;15.27;12.02;;;9.40;99.90;;;;;;5061166;28;20209;-73
2022/11/01 06:26:02;;;;;;;14.43;11.23;;;9.50;99.90;;;;;;5059349;28;20195;-73
2022/11/01 06:28:28;;;;;;;16.20;11.45;;;9.60;99.90;;;;;;5054908;28;20183;-74
2022/11/01 06:30:53;;;;;;;11.15;9.95;;;9.60;99.90;;;;;;5061343;28;20189;-74
2022/11/01 06:33:19;;;;;;;10.43;9.35;;;9.60;99.90;;;;;;5065434;28;20184;-73
2022/11/01 06:35:44;;;;;;;13.70;10.38;;;9.70;99.90;;;;;;5064596;28;20299;-74
2022/11/01 06:38:10;;;;;;;14.95;10.15;;;9.60;99.90;;;;;;5054508;28;20187;-74
2022/11/01 06:40:36;;;;;;;10.75;9.75;;;9.70;99.90;;;;;;5053677;28;20229;-74
2022/11/01 06:43:04;;;;;;;10.15;9.25;;;9.70;99.90;;;;;;5065243;28;20191;-74
2022/11/01 06:45:30;;;;;;;12.18;9.63;;;9.70;99.90;;;;;;5063174;28;20183;-73
2022/11/01 06:47:56;;;;;;;11.80;9.80;;;9.80;99.90;;;;;;5068687;28;20176;-74
2022/11/01 06:50:22;;;;;;;9.38;8.55;;;9.90;99.90;;;;;;5073163;28;20199;-73
2022/11/01 06:52:48;;;;;;;11.02;9.68;;;9.90;99.90;;;;;;5072913;28;20179;-73
2022/11/01 06:55:14;;;;;;;10.30;9.43;;;10.00;99.90;;;;;;5063103;28;20236;-73
2022/11/01 06:57:40;;;;;;;10.35;9.40;;;10.00;99.90;;;;;;5068302;28;20282;-74
2022/11/01 07:00:07;;;;;;;9.73;8.88;;;10.00;99.90;;;;;;5073428;28;20924;-74
2022/11/01 07:02:32;;;;;;;7.88;7.28;;;10.00;99.90;;;;;;5065276;28;20179;-74
2022/11/01 07:04:58;;;;;;;8.05;7.25;;;10.20;99.90;;;;;;5065692;28;20179;-74
2022/11/01 07:07:23;;;;;;;8.57;7.88;;;10.30;99.90;;;;;;5069051;28;20269;-73
2022/11/01 07:09:49;;;;;;;8.38;7.68;;;10.20;99.90;;;;;;5075302;28;20172;-73
2022/11/01 07:12:15;;;;;;;8.50;7.80;;;10.10;99.90;;;;;;5062597;28;20187;-73
2022/11/01 07:14:40;;;;;;;8.05;7.32;;;10.10;99.90;;;;;;5071168;28;20682;-73
2022/11/01 07:17:06;;;;;;;8.77;8.07;;;10.00;99.90;;;;;;5070316;28;20203;-73
2022/11/01 07:19:31;;;;;;;8.93;8.18;;;9.90;99.90;;;;;;5071018;28;20291;-73
2022/11/01 07:21:57;;;;;;;8.27;7.57;;;10.00;99.90;;;;;;5066498;28;20809;-73
2022/11/01 07:24:22;;;;;;;8.82;8.02;;;10.10;99.90;;;;;;5065599;28;20192;-73
2022/11/01 07:26:48;;;;;;;9.73;8.88;;;10.00;99.90;;;;;;5067834;28;20203;-73
2022/11/01 07:29:14;;;;;;;9.00;8.20;;;9.90;99.90;;;;;;5066412;28;20189;-73
2022/11/01 07:31:40;;;;;;;8.70;8.00;;;9.90;99.90;;;;;;5070864;28;20194;-73
2022/11/01 07:34:05;;;;;;;9.13;7.38;;;10.00;99.90;;;;;;5065981;28;20180;-74
2022/11/01 07:36:31;;;;;;;7.70;7.05;;;10.10;99.90;;;;;;5070643;28;20584;-73
2022/11/01 07:38:56;;;;;;;9.02;7.70;;;10.30;99.90;;;;;;5075566;28;20188;-72
2022/11/01 07:41:22;;;;;;;8.35;7.50;;;10.50;99.90;;;;;;5081219;28;20191;-73
2022/11/01 07:43:48;;;;;;;8.65;7.38;;;10.80;99.90;;;;;;5069807;28;20193;-73
2022/11/01 07:46:13;;;;;;;7.32;6.63;;;11.10;99.90;;;;;;5089220;28;20222;-74
2022/11/01 07:48:39;;;;;;;7.82;7.13;;;11.40;99.90;;;;;;5073222;28;20589;-75
2022/11/01 07:51:06;;;;;;;8.68;7.47;;;11.70;99.90;;;;;;5065738;28;20183;-74
2022/11/01 07:53:32;;;;;;;7.47;6.78;;;12.00;99.90;;;;;;5070011;28;20697;-75
2022/11/01 07:56:00;;;;;;;7.80;7.10;;;12.10;99.90;;;;;;5074052;28;20206;-74
2022/11/01 07:58:26;;;;;;;7.95;7.35;;;12.40;99.90;;;;;;5068400;28;20179;-74
2022/11/01 08:00:51;;;;;;;7.35;6.70;;;12.50;99.90;;;;;;5069505;28;20209;-76
2022/11/01 08:03:20;;;;;;;7.82;7.07;;;12.40;99.90;;;;;;5070825;28;20194;-74
2022/11/01 08:05:47;;;;;;;8.07;7.28;;;12.30;99.90;;;;;;5065609;28;20191;-74
2022/11/01 08:08:14;;;;;;;7.72;7.07;;;12.10;99.90;;;;;;5070639;28;20187;-74
2022/11/01 08:10:43;;;;;;;8.75;8.00;;;12.10;99.90;;;;;;5067538;28;20183;-76
2022/11/01 08:13:17;;;;;;;8.68;7.97;;;12.00;99.90;;;;;;5065417;28;20266;-74
2022/11/01 08:15:44;;;;;;;8.43;7.72;;;12.00;99.90;;;;;;5065230;28;20758;-74
2022/11/01 08:18:10;;;;;;;9.25;8.45;;;11.80;99.90;;;;;;5066680;28;20187;-75
2022/11/01 08:20:35;;;;;;;9.23;7.95;;;11.80;99.90;;;;;;5067969;28;20203;-75
2022/11/01 08:23:01;;;;;;;8.65;7.90;;;11.90;99.90;;;;;;5063293;28;20218;-75
2022/11/01 08:25:27;;;;;;;8.57;7.85;;;11.90;99.90;;;;;;5066139;28;20717;-75
2022/11/01 08:27:53;;;;;;;8.63;7.82;;;11.90;99.90;;;;;;5068507;28;20184;-74
2022/11/01 08:30:19;;;;;;;9.45;8.55;;;11.90;99.90;;;;;;5063367;28;20721;-75
2022/11/01 08:32:45;;;;;;;10.07;9.18;;;11.90;99.90;;;;;;5065911;28;20655;-75
2022/11/01 08:35:11;;;;;;;9.07;8.27;;;11.90;99.90;;;;;;5069000;28;20223;-75
2022/11/01 08:37:46;;;;;;;9.82;8.98;;;11.90;99.90;;;;;;5061707;28;20258;-75
2022/11/01 08:40:12;;;;;;;9.50;8.63;;;11.90;99.90;;;;;;5062985;28;20678;-75
2022/11/01 08:42:37;;;;;;;9.18;8.32;;;12.00;99.90;;;;;;5061525;28;20317;-75
2022/11/01 08:45:03;;;;;;;9.80;8.80;;;12.00;99.90;;;;;;5062234;28;20202;-75
2022/11/01 08:47:30;;;;;;;9.73;8.90;;;12.10;99.90;;;;;;5059926;28;20203;-76
2022/11/01 08:49:56;;;;;;;10.13;9.13;;;12.20;99.90;;;;;;5072054;28;20187;-75
2022/11/01 08:52:21;;;;;;;10.10;9.10;;;12.30;99.90;;;;;;5074249;28;20179;-75
2022/11/01 08:54:47;;;;;;;9.88;8.98;;;12.50;99.90;;;;;;5068651;28;20186;-76
2022/11/01 08:57:14;;;;;;;10.43;9.52;;;12.70;99.90;;;;;;5062997;28;20302;-75
2022/11/01 08:59:40;;;;;;;10.45;9.43;;;12.90;99.90;;;;;;5063186;28;20285;-75
2022/11/01 09:02:09;;;;;;;10.68;9.55;;;12.90;99.90;;;;;;5061363;28;20236;-75
2022/11/01 09:04:35;;;;;;;12.23;11.02;;;12.90;99.90;;;;;;5068515;28;20170;-75
2022/11/01 09:07:01;;;;;;;11.80;10.68;;;12.90;99.90;;;;;;5070135;28;20292;-75
2022/11/01 09:09:26;;;;;;;11.93;10.73;;;13.00;99.90;;;;;;5061521;28;20239;-75
2022/11/01 09:11:52;;;;;;;13.32;12.07;;;13.10;99.90;;;;;;5061741;28;20192;-74
2022/11/01 09:14:22;;;;;;;13.07;11.77;;;13.20;99.90;;;;;;5065780;28;20278;-74
2022/11/01 09:16:48;;;;;;;13.02;11.77;;;13.30;99.90;;;;;;5068021;28;20201;-75
2022/11/01 09:19:19;;;;;;;12.65;11.38;;;13.30;99.90;;;;;;5061725;28;20186;-80
2022/11/01 09:21:45;;;;;;;12.52;11.32;;;13.40;99.90;;;;;;5065974;28;20200;-77
2022/11/01 09:24:12;;;;;;;14.00;12.57;;;13.40;99.90;;;;;;5068566;28;20735;-75
2022/11/01 09:26:38;;;;;;;13.40;12.10;;;13.50;99.90;;;;;;5068817;28;20225;-75
2022/11/01 09:29:04;;;;;;;14.00;12.63;;;13.50;99.90;;;;;;5064421;28;20745;-75
2022/11/01 09:31:30;;;;;;;13.93;12.32;;;13.60;99.90;;;;;;5067264;28;20180;-74
2022/11/01 09:33:56;;;;;;;14.15;12.75;;;13.70;99.90;;;;;;5067958;28;20191;-74
2022/11/01 09:36:23;;;;;;;14.02;12.63;;;13.80;99.90;;;;;;5065828;28;20192;-73
2022/11/01 09:38:50;;;;;;;13.85;12.45;;;13.80;99.90;;;;;;5068401;28;20290;-73
2022/11/01 09:41:41;;;;;;;12.95;11.65;;;14.00;99.90;;;;;;5068204;28;20207;-74
2022/11/01 09:44:13;;;;;;;13.00;11.30;;;14.20;99.90;;;;;;5071056;28;20711;-73
2022/11/01 09:46:50;;;;;;;12.23;11.13;;;14.50;99.90;;;;;;5067626;28;20199;-74
2022/11/01 09:49:28;;;;;;;11.07;10.07;;;14.80;99.90;;;;;;5071401;28;20653;-74
2022/11/01 09:51:55;;;;;;;11.65;10.45;;;15.10;99.90;;;;;;5063305;28;20179;-74
2022/11/01 09:54:23;;;;;;;11.30;10.30;;;15.30;99.90;;;;;;5064921;28;20326;-74
2022/11/01 09:57:22;;;;;;;11.60;10.52;;;15.40;99.90;;;;;;5066525;28;20396;-74
2022/11/01 10:00:06;;;;;;;11.52;10.43;;;15.20;99.90;;;;;;5064022;28;20294;-75
2022/11/01 10:03:01;;;;;;;10.82;9.82;;;15.00;99.90;;;;;;5068573;28;20178;-78
2022/11/01 10:05:47;;;;;;;11.43;10.27;;;14.90;99.90;;;;;;5066335;28;20206;-74
2022/11/01 10:08:33;;;;;;;10.48;9.38;;;14.90;99.90;;;;;;5063103;28;20270;-74
2022/11/01 10:11:14;;;;;;;11.27;10.10;;;14.90;99.90;;;;;;5066852;28;20175;-73
2022/11/01 10:13:53;;;;;;;11.85;10.60;;;14.90;99.90;;;;;;5066291;28;20182;-74
2022/11/01 10:16:42;;;;;;;11.75;10.55;;;14.80;99.90;;;;;;5069895;28;20206;-74
2022/11/01 10:19:20;;;;;;;12.35;10.93;;;14.80;99.90;;;;;;5064127;28;20179;-74
2022/11/01 10:21:53;;;;;;;13.05;11.65;;;14.90;99.90;;;;;;5067171;28;20544;-74
2022/11/01 10:24:18;;;;;;;13.60;12.02;;;14.90;99.90;;;;;;5064658;28;20171;-74
2022/11/01 10:26:47;;;;;;;13.15;11.75;;;14.90;99.90;;;;;;5071587;28;20262;-74
2022/11/01 10:29:21;;;;;;;14.40;12.38;;;14.90;99.90;;;;;;5068093;28;20172;-74
2022/11/01 10:31:51;;;;;;;15.70;12.60;;;14.90;99.90;;;;;;5062055;28;20167;-74
2022/11/01 10:34:28;;;;;;;14.40;12.98;;;14.80;99.90;;;;;;5061111;28;20190;-75
2022/11/01 10:37:10;;;;;;;14.35;12.27;;;14.70;99.90;;;;;;5063053;28;20182;-73
2022/11/01 10:39:44;;;;;;;16.13;13.07;;;14.80;99.90;;;;;;5066933;28;20289;-74
2022/11/01 10:42:15;;;;;;;14.55;13.15;;;14.80;99.90;;;;;;5062656;28;20180;-73
2022/11/01 10:44:53;;;;;;;16.75;14.95;;;14.80;99.90;;;;;;5063475;28;20210;-73
2022/11/01 10:47:19;;;;;;;17.52;14.75;;;15.10;99.90;;;;;;5063766;28;20199;-73
2022/11/01 10:49:58;;;;;;;16.98;15.18;;;15.30;99.90;;;;;;5071106;28;20667;-73
2022/11/01 10:52:28;;;;;;;19.80;14.15;;;15.30;99.90;;;;;;5070237;28;20195;-76
2022/11/01 10:54:56;;;;;;;16.75;15.05;;;15.30;99.90;;;;;;5074990;28;20184;-72
2022/11/01 10:57:40;;;;;;;17.42;15.38;;;15.00;99.90;;;;;;5062197;28;20199;-72
2022/11/01 11:00:15;;;;;;;18.58;16.73;;;14.90;99.90;;;;;;5074240;28;20191;-73
2022/11/01 11:02:51;;;;;;;17.88;15.95;;;14.70;99.90;;;;;;5070450;28;20201;-75
2022/11/01 11:05:19;;;;;;;17.65;15.48;;;14.70;99.90;;;;;;5062488;28;20591;-73
2022/11/01 11:07:44;;;;;;;17.63;15.00;;;14.80;99.90;;;;;;5070310;28;20728;-73
2022/11/01 11:10:15;;;;;;;17.05;15.07;;;15.30;99.90;;;;;;5063972;28;20191;-72
2022/11/01 11:12:42;;;;;;;18.58;14.32;;;15.90;99.90;;;;;;5070218;28;20637;-73
2022/11/01 11:15:22;;;;;;;15.48;13.88;;;16.60;99.90;;;;;;5066981;28;20179;-72
2022/11/01 11:17:56;;;;;;;16.88;14.85;;;17.10;99.90;;;;;;5066888;28;20175;-73
2022/11/01 11:20:26;;;;;;;17.85;15.10;;;17.80;99.90;;;;;;5071771;28;20207;-73
2022/11/01 11:22:52;;;;;;;17.15;15.27;;;18.20;99.90;;;;;;5062835;28;20168;-73
2022/11/01 11:25:21;;;;;;;16.25;14.15;;;18.10;99.90;;;;;;5061337;28;20647;-73
2022/11/01 11:27:49;;;;;;;16.35;14.77;;;18.10;99.90;;;;;;5064480;28;20538;-73
2022/11/01 11:30:31;;;;;;;16.73;14.98;;;17.90;99.90;;;;;;5062669;28;20187;-74
2022/11/01 11:32:57;;;;;;;18.10;15.65;;;17.70;99.90;;;;;;5067354;28;20719;-73
2022/11/01 11:35:27;;;;;;;20.45;15.50;;;17.80;99.90;;;;;;5063889;28;20175;-74
2022/11/01 11:37:57;;;;;;;17.50;15.60;;;18.00;99.90;;;;;;5061896;28;20544;-74
2022/11/01 11:40:38;;;;;;;19.42;16.38;;;17.80;99.90;;;;;;5064221;28;20571;-73
2022/11/01 11:43:36;;;;;;;18.92;16.10;;;17.50;99.90;;;;;;5062116;28;20677;-74
2022/11/01 11:46:14;;;;;;;17.45;15.70;;;17.30;99.90;;;;;;5064584;28;20820;-73
2022/11/01 11:48:51;;;;;;;19.70;15.73;;;17.10;99.90;;;;;;5065464;28;20171;-75
2022/11/01 11:51:20;;;;;;;18.75;16.23;;;16.70;99.90;;;;;;5061569;28;20274;-74
2022/11/01 11:54:10;;;;;;;19.30;17.27;;;16.60;99.90;;;;;;5067621;28;20258;-73
2022/11/01 11:56:35;;;;;;;21.90;17.55;;;16.40;99.90;;;;;;5068194;28;20626;-74
2022/11/01 11:59:05;;;;;;;21.58;17.55;;;16.40;99.90;;;;;;5070567;28;20218;-74
2022/11/01 12:01:33;;;;;;;18.02;16.08;;;16.40;99.90;;;;;;5064738;28;20182;-74
2022/11/01 12:04:07;;;;;;;23.90;19.30;;;16.30;99.90;;;;;;5066087;28;20167;-74
2022/11/01 12:06:40;;;;;;;21.45;17.88;;;16.10;99.90;;;;;;5068147;28;20191;-73
2022/11/01 12:09:43;;;;;;;22.10;18.83;;;15.70;99.90;;;;;;5065023;28;20194;-74
2022/11/01 12:12:22;;;;;;;22.98;18.17;;;15.40;99.90;;;;;;5066810;28;20172;-74
2022/11/01 12:14:47;;;;;;;20.80;18.55;;;15.40;99.90;;;;;;5063274;28;20198;-74
2022/11/01 12:17:35;;;;;;;21.95;18.75;;;15.50;99.90;;;;;;5065322;28;20606;-74
2022/11/01 12:20:19;;;;;;;19.98;17.08;;;15.50;99.90;;;;;;5059546;28;20621;-74
2022/11/01 12:23:15;;;;;;;24.55;19.05;;;15.60;99.90;;;;;;5056371;28;20534;-75
2022/11/01 12:25:43;;;;;;;23.00;19.20;;;15.60;99.90;;;;;;5065355;28;20207;-77
2022/11/01 12:28:31;;;;;;;21.20;18.90;;;15.50;99.90;;;;;;5063340;28;20182;-76
2022/11/01 12:31:02;;;;;;;20.63;17.27;;;15.40;99.90;;;;;;5067623;28;20186;-76
2022/11/01 12:33:35;;;;;;;21.50;18.15;;;15.40;99.90;;;;;;5067277;28;20185;-77
2022/11/01 12:36:01;;;;;;;21.25;18.90;;;15.50;99.90;;;;;;5070388;28;20197;-77
2022/11/01 12:39:14;;;;;;;25.48;18.90;;;15.60;99.90;;;;;;5072757;28;20226;-77
2022/11/01 12:41:48;;;;;;;23.05;18.55;;;15.60;99.90;;;;;;5066220;28;20203;-77
2022/11/01 12:44:34;;;;;;;23.20;18.67;;;15.70;99.90;;;;;;5066827;28;20348;-77
2022/11/01 12:47:22;;;;;;;24.15;18.90;;;15.70;99.90;;;;;;5066138;28;20542;-76
2022/11/01 12:50:00;;;;;;;24.73;19.45;;;15.70;99.90;;;;;;5062161;28;20163;-76
2022/11/01 12:52:43;;;;;;;23.98;19.02;;;15.70;99.90;;;;;;5071840;28;20186;-79
2022/11/01 12:55:11;;;;;;;22.08;19.40;;;15.70;99.90;;;;;;5059486;28;20615;-76